Meridian, CA (95957)

3:43 AM PST on February 06, 2016 (GMT -0800)
El Margarita | | Change Station
CLOSE
Current Station
Personal Weather Station
Location: Yuba City, CA
Elevation: 62 ft
Nearby Weather Stations

Elev 62 ft 39.13 °N, 121.66 °W | Updated 2 minutes ago

Partly Cloudy
Partly Cloudy
39.6 °F
Feels Like 40 °F
N
0.0
Wind Variable Wind from SSW

Today
High -- | Low -- °F
--% Chance of Precip.
Yesterday
High -- | Low -- °F
Precip. -- in
Pressure 30.43 in
Visibility 4.0 miles
Clouds Few 12000 ft
Windchill 40 °F
Dew Point 39 °F
Humidity 99%
Rainfall 0.00 in
Snow Depth Not available.
7:09 AM 5:33 PM
Waning Crescent, 6% visible
METAR KMYV 061053Z AUTO 00000KT 4SM BR FEW120 04/04 A3042 RMK AO2 SLP303 T00390039
Pressure 30.43 in
Visibility 4.0 miles
Clouds Few 12000 ft
Windchill 40 °F
Dew Point 39 °F
Humidity 99%
Rainfall 0.00 in
Snow Depth Not available.
7:09 AM 5:33 PM
Waning Crescent, 6% visible
METAR KMYV 061053Z AUTO 00000KT 4SM BR FEW120 04/04 A3042 RMK AO2 SLP303 T00390039

10-Day Weather Forecast

Almanac

Astronomy

Feb. 06, 2016 Rise Set
Actual Time
Civil Twilight
Nautical Twilight
Astronomical Twilight
Moon
Length of Visible Light
Length of Day
Tomorrow will be .
, % of the Moon is Illuminated

Today's Extremes

State Highs State Lows

Community

WunderPhotos

Upload Photos

1,890,944 photos uploaded!

WunderBlog® & News

Nearby

Air Quality

  Air Quality AQ Index Pollutant
Not available.

Snow Depth

Station Depth Elevation

Earthquake Activity

City Distance Mag. Time & Date
Minimum magnitude displayed is 2.5.

Coastal Water Temperatures

Place Temperature

Stations

Nearby Weather Stations

Station Location Temp. Windchill Dew Point Humidity Wind Precip. Elev Updated Type
                   

Watches & Warnings

There are currently no watches in effect.